x

Northwestern Hawaii One - 170 Nm West Northwest Of Kauai Island (51001) Weather Station

4:20am - Wed 22nd Nov 2017 All times are HST. -10 hours from GMT.

  • Wind
    20mph, 27mph gusts
  • Sea Temp 77°f
  • Air Temp 73°f
  • Sea Pressure 1018.3mb
  • Northwestern Hawaii One - 170 Nm West Northwest Of Kauai Island
  • Northwestern Hawaii One - 170 Nm West Northwest Of Kauai Island

More Historic Weather Station data

Upgrade to MSW Pro to gain access to the past 30 days of data for over 8000 Wavebouys and Weather Stations around the globe.

Join

Comparision Forecast

View Surf forecast
   
Wed 11/22 4:20am  -   -   -  20 27 mph 1018.3mb 77f 73f
4:10am  -   -   -  20 25 mph 1018.2mb 77f 73f
4:00am  -   -   -  20 25 mph 1018.3mb 77f 73f
3:50am 13ft 11s 8s 20 27 mph 1018.2mb 77f 73f
3:40am 13ft  -  8s 20 27 mph 1018.2mb 77f 73f
3:30am  -   -   -  20 27 mph 1018.1mb 77f 73f
3:20am  -   -   -  22 27 mph 1018.2mb 77f 73f
3:10am  -   -   -  22 27 mph 1018.1mb - 73f
3:00am  -   -   -  20 27 mph 1018.1mb 77f 73f
2:50am 12ft 11s 8s 20 25 mph 1018.2mb 77f 73f
2:40am 12ft  -  8s 20 27 mph 1018.2mb - 73f
2:30am  -   -   -  20 27 mph 1018.2mb 77f 73f
2:20am  -   -   -  20 27 mph 1018.2mb 77f 73f
2:10am  -   -   -  22 27 mph 1018.4mb 77f 73f
2:00am  -   -   -  22 27 mph 1018.4mb 77f 73f
1:50am 12ft 11s 7s 20 27 mph 1018.4mb 77f 73f
1:40am  -   -   -  22 29 mph 1018.4mb 77f 73f
1:30am  -   -   -  22 29 mph 1018.5mb 77f 73f
1:20am  -   -   -  22 27 mph 1018.5mb 77f 73f
1:10am  -   -   -  20 27 mph 1018.7mb 77f 73f
1:00am  -   -   -  22 27 mph 1018.6mb 77f 73f
12:50am 12ft 11s 8s 18 27 mph 1018.7mb 77f 72f
12:40am 12ft  -  8s 20 25 mph 1018.9mb 77f 72f
12:30am  -   -   -  20 29 mph 1019mb 77f 72f
12:20am  -   -   -  25 31 mph 1018.9mb 77f 72f
12:10am  -   -   -  22 31 mph 1018.9mb 77f 73f
12:00am  -   -   -  22 27 mph 1018.9mb 77f 73f
Tue 11/21 11:50pm 12ft 11s 8s 22 27 mph 1018.9mb 77f 73f
11:40pm  -   -   -  20 27 mph 1019mb 77f 73f
11:30pm  -   -   -  20 25 mph 1019.1mb 77f 73f
11:20pm  -   -   -  20 29 mph 1019.1mb 77f 73f
11:10pm  -   -   -  22 27 mph 1019.1mb 77f 73f
11:00pm  -   -   -  22 29 mph 1019.2mb 77f 73f
10:50pm 11ft 11s 7s 22 29 mph 1019.1mb 77f 73f
10:40pm 11ft  -  7s 22 27 mph 1019.2mb 77f 73f
10:30pm  -   -   -  22 27 mph 1019.1mb 77f 73f
10:20pm  -   -   -  22 29 mph 1019.2mb 77f 73f
10:10pm  -   -   -  22 29 mph 1019.1mb 77f 73f
10:00pm  -   -   -  22 29 mph 1019mb 77f 73f
7:10pm  -   -   -  25 34 mph 1018mb 77f 73f
7:00pm  -   -   -  25 29 mph 1017.8mb 77f 73f
6:30pm  -   -   -  25 29 mph 1017.7mb 77f 73f
6:20pm  -   -   -  25 31 mph 1017.6mb 77f 73f
6:10pm  -   -   -  22 29 mph 1017.4mb 77f 73f
6:00pm  -   -   -  25 31 mph 1017.2mb 77f 73f
5:50pm 13ft 11s 8s 22 29 mph 1017.3mb 77f 73f
5:40pm 13ft  -  8s 25 29 mph 1017.1mb 77f 73f
5:30pm  -   -   -  25 29 mph 1017mb 77f 73f
5:20pm  -   -   -  25 29 mph 1016.9mb 77f 73f
5:10pm  -   -   -  22 29 mph 1016.8mb 77f 73f
5:00pm  -   -   -  25 31 mph 1016.7mb 77f 73f
4:50pm 13ft 11s 7s 25 34 mph 1016.5mb 77f 73f
4:40pm 13ft  -  7s 25 31 mph 1016.4mb 77f 73f
4:30pm  -   -   -  27 34 mph 1016.2mb 77f 73f
4:20pm  -   -   -  25 31 mph 1016.2mb 77f 73f
4:10pm  -   -   -  25 31 mph 1016.2mb 77f 73f
4:00pm  -   -   -  25 29 mph 1016.1mb 77f 73f
3:50pm 11.5ft 11s 7s 27 34 mph 1016mb 77f 73f
3:40pm 11.5ft  -  7s 25 31 mph 1015.9mb 77f 73f
3:30pm  -   -   -  22 31 mph 1015.9mb 77f 73f
3:20pm  -   -   -  25 31 mph 1015.9mb 77f 73f
3:10pm  -   -   -  25 31 mph 1015.9mb - 73f
3:00pm  -   -   -  25 29 mph 1015.8mb 77f 73f
2:50pm 11ft 11s 7s 25 31 mph 1015.7mb - 73f
2:40pm 11ft  -  7s 25 29 mph 1015.6mb - 73f
2:30pm  -   -   -  25 29 mph 1015.7mb 77f 73f
2:20pm  -   -   -  25 34 mph 1015.8mb 77f 73f
2:10pm  -   -   -  27 34 mph 1015.7mb 77f 73f
2:00pm  -   -   -  25 31 mph 1015.8mb 77f 73f
1:50pm 11ft 11s 7s 25 29 mph 1015.9mb 77f 73f
1:40pm 11ft  -  7s 22 29 mph 1016mb 77f 72f
1:30pm  -   -   -  20 29 mph 1016.1mb 77f 72f
1:20pm  -   -   -  16 22 mph 1016.3mb 77f 71f
1:10pm  -   -   -  18 25 mph 1016.6mb 77f 71f
1:00pm  -   -   -  16 22 mph 1016.8mb 77f 70f
12:50pm 12ft 11s 8s 22 31 mph 1017.1mb 77f 71f
12:40pm  -   -   -  22 31 mph 1017.2mb 77f 71f
12:30pm  -   -   -  25 34 mph 1017.2mb 77f 72f
12:20pm  -   -   -  20 27 mph 1017.2mb 77f 73f
12:10pm  -   -   -  20 25 mph 1017.4mb 77f 73f
12:00pm  -   -   -  18 25 mph 1017.5mb 77f 73f
11:50am 11ft 11s 7s 18 22 mph 1017.6mb 77f 73f
11:40am 11ft  -  7s 20 25 mph 1017.6mb - 73f
11:30am  -   -   -  20 25 mph 1017.7mb 77f 73f
11:20am  -   -   -  20 25 mph 1017.7mb 77f 73f
11:10am  -   -   -  20 25 mph 1017.7mb 77f 73f
11:00am  -   -   -  20 29 mph 1017.9mb 77f 73f
10:50am 11ft 11s 7s 20 27 mph 1018mb 77f 73f
10:40am 11ft  -  7s 20 27 mph 1017.8mb 77f 73f
10:30am  -   -   -  22 29 mph 1017.9mb 77f 74f
10:20am  -   -   -  22 27 mph 1017.9mb 77f 74f
10:10am  -   -   -  20 27 mph 1017.9mb 77f 74f
10:00am  -   -   -  22 29 mph 1017.8mb 77f 73f
9:50am 11ft 11s 7s 22 29 mph 1017.7mb 77f 73f
9:40am 11ft  -  7s 22 29 mph 1017.7mb 77f 73f
9:30am  -   -   -  22 31 mph 1017.8mb 77f 73f
9:20am  -   -   -  22 27 mph 1017.8mb 77f 73f
9:10am  -   -   -  22 29 mph 1017.8mb 77f 73f
9:00am  -   -   -  22 29 mph 1017.7mb 77f 72f
8:50am 10ft  -  7s 25 29 mph 1017.7mb 77f -
8:40am 10ft  -  7s 25 29 mph 1017.6mb 77f 73f
8:30am  -   -   -  18 25 mph 1017.5mb 77f 72f
8:20am  -   -   -  18 22 mph 1017.4mb 77f 72f
8:10am  -   -   -  20 25 mph 1017.2mb 77f 73f
8:00am  -   -   -  20 25 mph 1017mb 77f 73f
7:50am 11ft 10s 7s 20 25 mph 1017mb 77f 72f
7:40am 11ft  -  7s 22 29 mph 1016.9mb 77f 72f
7:30am  -   -   -  22 27 mph 1016.7mb 77f 72f
7:20am  -   -   -  22 27 mph 1016.6mb 77f 72f
7:10am  -   -   -  20 27 mph 1016.5mb 77f 72f
7:00am  -   -   -  22 29 mph 1016.3mb 77f 72f
6:50am 11ft 10s 8s 22 29 mph 1016.2mb 77f 72f
6:40am  -   -   -  22 27 mph 1016.1mb 77f 73f
6:30am  -   -   -  20 27 mph 1016mb 77f 73f
6:20am  -   -   -  22 29 mph 1015.9mb 77f 72f
6:10am  -   -   -  22 29 mph 1015.7mb 77f 73f
6:00am  -   -   -  22 29 mph 1015.7mb 77f 72f
5:50am 11ft 11s 8s 22 29 mph 1015.5mb 77f 72f
5:40am 11ft  -  8s 25 31 mph 1015.5mb 77f 72f
5:30am  -   -   -  22 29 mph 1015.3mb 77f 72f
5:20am  -   -   -  25 29 mph 1015.3mb 77f 72f
5:10am  -   -   -  22 29 mph 1015.3mb 77f 72f
5:00am  -   -   -  22 29 mph 1015.3mb 77f 72f
4:50am 11ft 11s 8s 18 25 mph 1015.4mb 77f 72f
4:40am 11ft  -  8s 18 25 mph 1015.4mb 77f 72f
4:30am  -   -   -  20 25 mph 1015.5mb 77f 72f
4:20am  -   -   -  22 29 mph 1015.5mb 77f 72f
4:10am  -   -   -  20 27 mph 1015.6mb 77f 72f
4:00am  -   -   -  20 25 mph 1015.6mb 77f 72f
3:50am 11ft 11s 8s 22 29 mph 1015.5mb 77f 72f
3:40am 11ft  -  8s 25 29 mph 1015.6mb 77f 72f
3:30am  -   -   -  22 31 mph 1015.5mb 77f 73f
3:20am  -   -   -  20 25 mph 1015.4mb 77f 73f
3:10am  -   -   -  20 25 mph 1015.4mb - 73f
3:00am  -   -   -  20 27 mph 1015.6mb 77f -
2:50am 12ft 11s 8s 20 27 mph 1015.5mb 77f 73f
2:40am  -   -   -  20 25 mph 1015.5mb 77f 73f
2:30am  -   -   -  20 25 mph 1015.6mb - 73f
2:20am  -   -   -  18 22 mph 1015.7mb 77f 73f
2:10am  -   -   -  18 25 mph 1015.8mb 77f 73f
2:00am  -   -   -  16 22 mph 1015.8mb 77f 72f
1:50am 11.5ft 11s 8s 16 22 mph 1015.8mb 77f 72f
1:40am 11.5ft  -  8s 16 22 mph 1015.9mb 77f 72f
1:30am  -   -   -  16 20 mph 1016mb 77f 72f
1:20am  -   -   -  18 22 mph 1016mb 77f 72f
1:10am  -   -   -  18 22 mph 1016.2mb 77f 72f
1:00am  -   -   -  18 25 mph 1016.3mb 77f 72f
12:50am 11.5ft 11s 8s 16 20 mph 1016.3mb 77f 72f
12:40am 11.5ft  -  8s 16 22 mph 1016.3mb 77f 72f
12:30am  -   -   -  16 20 mph 1016.5mb 77f 71f
12:20am  -   -   -  18 22 mph 1016.6mb 77f 71f
12:10am  -   -   -  18 25 mph 1016.8mb 77f 72f
12:00am  -   -   -  20 25 mph 1016.8mb 77f 72f
Mon 11/20 11:50pm 12.5ft 11s 8s 20 27 mph 1016.8mb 77f 72f
11:40pm 12.5ft  -  8s 20 25 mph 1016.8mb 77f 72f
11:30pm  -   -   -  18 22 mph 1016.9mb 77f 72f
11:20pm  -   -   -  18 25 mph 1017mb 77f 72f
11:10pm  -   -   -  20 27 mph 1017mb 77f 72f
11:00pm  -   -   -  18 25 mph 1016.9mb 77f 72f
10:50pm 12ft 11s 8s 11 16 mph 1017mb 77f 71f
10:40pm 12ft  -  8s 9 13 mph 1017.1mb 77f 71f
10:30pm  -   -   -  13 25 mph 1017.1mb 77f 71f
10:20pm  -   -   -  22 27 mph 1017.1mb 77f 71f
10:10pm  -   -   -  18 25 mph 1017mb 77f 72f
10:00pm  -   -   -  13 20 mph 1017mb 77f 72f
9:50pm 11ft 11s 8s 16 20 mph 1017mb 77f 72f
9:40pm  -   -   -  20 25 mph 1017mb 77f 72f
9:30pm  -   -   -  16 22 mph 1017mb 77f 73f
9:20pm  -   -   -  16 20 mph 1016.9mb 77f 73f
9:10pm  -   -   -  18 20 mph 1016.9mb 77f 73f
9:00pm  -   -   -  18 22 mph 1016.9mb 77f 73f
8:50pm 10ft 11s 8s 13 20 mph 1016.9mb 77f 73f
8:40pm  -   -   -  13 20 mph 1016.7mb 77f 73f
8:30pm  -   -   -  16 22 mph 1016.6mb 77f 73f
8:20pm  -   -   -  18 22 mph 1016.5mb 77f 73f
8:10pm  -   -   -  16 22 mph 1016.4mb 77f 73f
8:00pm  -   -   -  16 22 mph 1016.3mb - 73f
7:50pm 11ft 11s 8s 18 22 mph 1016.2mb 77f 73f
7:40pm 11ft  -  8s 16 20 mph 1016mb 77f 73f
7:30pm  -   -   -  18 22 mph 1016.1mb 77f 73f
7:20pm  -   -   -  18 25 mph 1016mb 77f 73f
7:10pm  -   -   -  18 25 mph 1015.9mb 77f 73f
7:00pm  -   -   -  18 25 mph 1015.8mb 77f 73f
6:50pm 12ft 11s 8s 18 22 mph 1015.6mb 77f 73f
6:40pm  -   -   -  18 22 mph 1015.5mb 77f 73f
6:30pm  -   -   -  18 22 mph 1015.4mb 77f 73f
6:20pm  -   -   -  18 25 mph 1015.3mb 77f 72f
6:10pm  -   -   -  18 22 mph 1015mb 77f 72f
6:00pm  -   -   -  18 25 mph 1015.1mb 77f 72f
5:50pm 11ft 11s 7s 20 25 mph 1014.9mb 77f 72f
5:40pm  -   -   -  20 25 mph 1014.8mb 77f 72f
5:30pm  -   -   -  18 22 mph 1014.7mb 77f 72f
5:20pm  -   -   -  20 27 mph 1014.7mb 77f 71f
5:10pm  -   -   -  16 25 mph 1014.6mb 77f 71f
5:00pm  -   -   -  16 20 mph 1014.6mb 77f 71f
4:50pm 12ft 11s 8s 18 25 mph 1014.5mb 77f 70f
4:40pm  -   -   -  25 29 mph 1014.6mb 77f 71f
4:30pm  -   -   -  20 25 mph 1014.4mb 77f 71f
4:20pm  -   -   -  18 22 mph 1014.3mb 77f 71f
4:10pm  -   -   -  16 22 mph 1014.2mb 77f 71f
4:00pm  -   -   -  16 22 mph 1014.3mb 77f 70f
3:50pm 11.5ft 11s 8s 25 31 mph 1014.2mb 77f 71f
3:40pm 11.5ft  -  8s 16 20 mph 1014.2mb 77f 70f
3:30pm  -   -   -  18 27 mph 1014.1mb 77f 69f
3:20pm  -   -   -  22 29 mph 1013.8mb 77f 71f
3:10pm  -   -   -  18 22 mph 1013.7mb 77f 71f
3:00pm  -   -   -  16 22 mph 1013.6mb 77f 70f
2:50pm 11.5ft 11s 8s 20 29 mph 1013.7mb 77f 70f
2:40pm 11.5ft  -  8s 18 27 mph 1013.7mb 77f 71f
2:30pm  -   -   -  20 27 mph 1013.6mb 77f 71f
2:20pm  -   -   -  18 25 mph 1013.7mb 77f 72f
2:10pm  -   -   -  18 25 mph 1013.8mb 77f 71f
2:00pm  -   -   -  20 25 mph 1013.7mb 77f 71f
1:50pm 11.5ft 11s 8s 18 25 mph 1013.8mb 77f 70f
1:40pm 11.5ft  -  8s 20 31 mph 1014mb 77f 71f
1:30pm  -   -   -  16 20 mph 1014mb 77f 71f
1:20pm  -   -   -  18 22 mph 1014.2mb 77f 71f
1:10pm  -   -   -  18 25 mph 1014.4mb 77f 71f
1:00pm  -   -   -  18 25 mph 1014.5mb 77f 71f
12:50pm 11.5ft 10s 8s 20 27 mph 1014.7mb 77f 71f
12:40pm 11.5ft  -  8s 18 22 mph 1014.5mb 77f 71f
12:30pm  -   -   -  18 22 mph 1014.7mb 77f 70f
12:20pm  -   -   -  18 27 mph 1014.8mb 77f 70f
12:10pm  -   -   -  18 22 mph 1014.9mb 77f 69f
12:00pm  -   -   -  22 31 mph 1015mb 77f 70f
11:50am 11ft 12s 8s 20 25 mph 1014.9mb 77f 71f
11:40am 11ft  -  8s 18 22 mph 1015.1mb 77f 69f
11:30am  -   -   -  20 31 mph 1015.3mb 77f 69f
11:20am  -   -   -  22 31 mph 1015.4mb 77f 71f
11:10am  -   -   -  20 25 mph 1015.6mb 77f 71f
11:00am  -   -   -  18 27 mph 1015.7mb 77f 71f
10:50am 11ft 11s 8s 20 27 mph 1015.9mb 77f 71f
10:40am 11ft  -  8s 22 29 mph 1015.9mb 77f 71f
10:30am  -   -   -  22 29 mph 1015.9mb 77f 72f
10:20am  -   -   -  20 27 mph 1015.9mb 77f 72f
10:10am  -   -   -  20 27 mph 1015.8mb 77f 72f
10:00am  -   -   -  20 27 mph 1015.7mb 77f 72f
9:50am 11ft 11s 8s 22 31 mph 1015.7mb 77f 72f
9:40am 11ft  -  8s 22 29 mph 1015.6mb 77f 72f
9:30am  -   -   -  20 27 mph 1015.5mb 77f 72f
9:20am  -   -   -  20 27 mph 1015.2mb 77f 72f
9:10am  -   -   -  18 25 mph 1015.2mb 77f 72f
9:00am  -   -   -  20 29 mph 1015.1mb 77f 71f
8:50am 11.5ft 11s 8s 20 27 mph 1015.1mb 77f 72f
8:40am 11.5ft  -  8s 20 27 mph 1015.1mb 77f 72f
8:30am  -   -   -  20 27 mph 1015.1mb 77f 72f
8:20am  -   -   -  20 27 mph 1015mb 77f 71f
8:10am  -   -   -  22 29 mph 1015mb 77f 70f
8:00am  -   -   -  22 31 mph 1014.8mb 77f 71f
7:50am 11ft 12s 8s 20 27 mph 1014.8mb 77f 71f
7:40am  -   -   -  25 29 mph 1014.6mb 77f 71f
7:30am  -   -   -  22 31 mph 1014.5mb 77f 70f
7:20am  -   -   -  25 31 mph 1014.4mb 77f 69f
7:10am  -   -   -  22 31 mph 1014.2mb 77f 71f
7:00am  -   -   -  20 27 mph 1014.3mb 77f 70f
6:50am 12ft 11s 8s 20 34 mph 1014.3mb 77f 70f
6:40am 12ft  -  8s 13 25 mph 1014.1mb 77f 71f
6:30am  -   -   -  13 20 mph 1014mb 77f 71f
6:20am  -   -   -  16 20 mph 1013.9mb 77f 71f
6:10am  -   -   -  16 20 mph 1013.9mb 77f 70f
6:00am  -   -   -  16 22 mph 1013.7mb 77f 71f
5:50am 12.5ft 12s 8s 18 22 mph 1013.8mb 77f 70f
5:40am 12.5ft  -  8s 20 27 mph 1013.6mb 77f 70f
5:30am  -   -   -  22 29 mph 1013.7mb 77f 70f
5:20am  -   -   -  20 27 mph 1013.6mb 77f 71f
5:10am  -   -   -  20 25 mph 1013.6mb 77f 71f
5:00am  -   -   -  20 25 mph 1013.6mb 77f 71f
4:50am 12ft 11s 8s 20 27 mph 1013.6mb 77f 71f
4:40am 12ft  -  8s 20 29 mph 1013.7mb 77f 70f
4:30am  -   -   -  22 29 mph 1013.6mb 77f 71f
4:20am  -   -   -  18 25 mph 1013.6mb 77f 71f
4:10am  -   -   -  18 25 mph 1013.6mb 77f 71f
4:00am  -   -   -  18 22 mph 1013.8mb 78f 71f
3:50am 12.5ft 11s 8s 18 22 mph 1013.9mb 77f 71f
3:40am 12.5ft  -  8s 18 25 mph 1013.9mb 77f 71f
3:30am  -   -   -  18 27 mph 1014mb 77f 71f
3:20am  -   -   -  18 25 mph 1014.1mb 77f 71f
3:10am  -   -   -  13 20 mph 1014.2mb 78f 70f
3:00am  -   -   -  13 20 mph 1014.4mb 78f 69f
2:50am 14ft 12s 8s 16 22 mph 1014.5mb 78f 69f
2:40am 14ft  -  8s 18 25 mph 1014.6mb 77f 69f
2:30am  -   -   -  16 22 mph 1014.8mb 78f 69f
2:20am  -   -   -  20 27 mph 1014.7mb 78f 70f
2:10am  -   -   -  16 22 mph 1014.7mb 77f 69f
2:00am  -   -   -  16 25 mph 1014.8mb 78f 69f
1:50am 14ft 12s 8s 18 25 mph 1015mb - 69f
1:40am 14ft  -  8s 22 31 mph 1014.9mb 78f 69f
1:30am  -   -   -  27 34 mph 1014.8mb 77f 71f
1:20am  -   -   -  20 27 mph 1014.8mb 78f 71f
1:10am  -   -   -  18 27 mph 1014.9mb 78f 70f
1:00am  -   -   -  13 18 mph 1014.9mb 78f 71f
12:50am 13ft 12s 8s 16 20 mph 1015mb 78f 71f
12:40am  -   -   -  20 25 mph 1015mb 78f 72f
12:30am  -   -   -  18 27 mph 1014.9mb 78f 71f
12:20am  -   -   -  18 22 mph 1015.1mb 78f 71f
12:10am  -   -   -  22 29 mph 1015.2mb 78f 71f
12:00am  -   -   -  20 29 mph 1015.2mb 78f 72f
Sun 11/19 11:50pm 13ft 12s 8s 18 25 mph 1015.2mb - 71f
11:40pm 13ft  -  8s 18 25 mph 1015.4mb 78f 70f
11:30pm  -   -   -  18 27 mph 1015.5mb 78f 69f
11:20pm  -   -   -  22 29 mph 1015.8mb 78f 71f
11:10pm  -   -   -  20 27 mph 1015.6mb 78f 72f
11:00pm  -   -   -  20 27 mph 1015.4mb 78f 72f
10:50pm 13.5ft 12s 8s 20 27 mph 1015.4mb 78f 71f
10:40pm 13.5ft  -  8s 20 25 mph 1015.4mb 78f 71f
10:30pm  -   -   -  20 27 mph 1015.4mb 78f 70f
10:20pm  -   -   -  16 22 mph 1015.5mb 78f 68f
10:10pm  -   -   -  22 29 mph 1015.6mb 78f 69f
10:00pm  -   -   -  22 29 mph 1015.5mb 78f 71f
9:50pm 13ft 13s 8s 18 25 mph 1015.2mb 78f 72f
9:40pm 13ft  -  8s 18 25 mph 1015.2mb 78f 72f
9:30pm  -   -   -  20 25 mph 1015.1mb 78f 72f
9:20pm  -   -   -  20 29 mph 1015.1mb 78f 72f
9:10pm  -   -   -  20 27 mph 1015.1mb 78f 72f
9:00pm  -   -   -  20 25 mph 1015mb 78f 72f
8:50pm 12ft 11s 8s 20 25 mph 1015mb 78f 72f
8:40pm 12ft  -  8s 20 27 mph 1015mb 78f 72f
8:30pm  -   -   -  20 25 mph 1014.9mb 78f 72f
8:20pm  -   -   -  20 27 mph 1014.8mb 78f 72f
8:10pm  -   -   -  20 27 mph 1014.8mb 78f 72f
8:00pm  -   -   -  20 27 mph 1014.7mb 78f 72f
7:50pm 13ft 13s 8s 22 29 mph 1014.7mb 78f 73f
7:40pm 13ft  -  8s 22 31 mph 1014.7mb 78f 73f
7:30pm  -   -   -  22 27 mph 1014.6mb 78f 73f
7:20pm  -   -   -  20 27 mph 1014.6mb 78f 73f
7:10pm  -   -   -  20 27 mph 1014.5mb 78f 72f
7:00pm  -   -   -  22 29 mph 1014.5mb 78f 73f
6:50pm 14.5ft 13s 9s 20 27 mph 1014.4mb 78f 73f
6:40pm  -   -   -  20 27 mph 1014.2mb 78f 73f
6:30pm  -   -   -  22 27 mph 1014.2mb 78f 73f
6:20pm  -   -   -  22 27 mph 1014.1mb 78f 73f
6:10pm  -   -   -  20 27 mph 1014.1mb 78f 73f
6:00pm  -   -   -  20 27 mph 1014mb 78f 73f
5:50pm 14ft 13s 9s 20 25 mph 1013.9mb 78f 72f
5:40pm 14ft  -  9s 22 27 mph 1013.8mb 78f 72f
5:30pm  -   -   -  20 27 mph 1013.8mb 78f 72f
5:20pm  -   -   -  20 27 mph 1013.7mb 78f 72f
5:10pm  -   -   -  20 27 mph 1013.7mb 78f 72f
5:00pm  -   -   -  20 29 mph 1013.6mb 78f 72f
4:50pm 15ft 13s 9s 20 29 mph 1013.6mb 78f 72f
4:40pm 15ft  -  9s 20 27 mph 1013.6mb 78f 72f
4:30pm  -   -   -  20 27 mph 1013.6mb 78f 72f
4:20pm  -   -   -  20 25 mph 1013.7mb 78f 72f
4:10pm  -   -   -  20 27 mph 1013.6mb 78f 72f
4:00pm  -   -   -  22 29 mph 1013.6mb 78f 72f
3:50pm 14ft 13s 9s 20 27 mph 1013.6mb 78f 72f
3:40pm 14ft  -  9s 20 27 mph 1013.6mb 78f 72f
3:30pm  -   -   -  20 27 mph 1013.6mb 78f 72f
3:20pm  -   -   -  16 22 mph 1013.8mb 78f 69f
3:10pm  -   -   -  18 29 mph 1014.1mb 78f 69f
3:00pm  -   -   -  18 27 mph 1014mb 78f 71f
2:50pm 15ft 14s 9s 16 22 mph 1014.1mb 78f 70f
2:40pm 15ft  -  9s 18 27 mph 1014.2mb 78f 69f
2:30pm  -   -   -  27 34 mph 1014.5mb 78f 69f
2:20pm  -   -   -  22 34 mph 1014.3mb 78f 71f
2:10pm  -   -   -  18 22 mph 1014.4mb 78f 71f
2:00pm  -   -   -  18 27 mph 1014.5mb 78f 71f
1:50pm 14ft 14s 9s 18 25 mph 1014.6mb 78f 71f
1:40pm 14ft  -  9s 20 27 mph 1014.7mb 78f 71f
1:30pm  -   -   -  20 29 mph 1014.8mb 78f 71f
1:20pm  -   -   -  22 31 mph 1014.9mb 78f 71f
1:10pm  -   -   -  20 27 mph 1015mb 78f 72f
1:00pm  -   -   -  18 25 mph 1015.1mb 78f 72f
12:50pm 14ft 14s 9s 18 25 mph 1015.3mb 78f 72f
12:40pm 14ft  -  9s 18 25 mph 1015.4mb 78f 72f
12:30pm  -   -   -  16 25 mph 1015.5mb 78f 72f
12:20pm  -   -   -  16 22 mph 1015.7mb 78f 71f
12:10pm  -   -   -  18 25 mph 1015.9mb 78f 71f
12:00pm  -   -   -  22 27 mph 1015.9mb 78f 72f
11:50am 14.5ft 13s 9s 20 29 mph 1016mb 78f 72f
11:40am 14.5ft  -  9s 18 25 mph 1016.2mb 78f 72f
11:30am  -   -   -  18 25 mph 1016.2mb 78f 72f
11:20am  -   -   -  18 25 mph 1016.3mb 78f 72f
11:10am  -   -   -  18 22 mph 1016.4mb 78f 72f
11:00am  -   -   -  18 25 mph 1016.6mb 78f 72f
10:50am 15.5ft 14s 10s 18 25 mph 1016.7mb 78f 72f
10:40am 15.5ft  -  10s 18 22 mph 1016.7mb 78f 72f
10:30am  -   -   -  18 22 mph 1016.9mb 78f 72f
10:20am  -   -   -  18 25 mph 1016.9mb 78f 72f
10:10am  -   -   -  18 22 mph 1016.8mb 78f 72f
10:00am  -   -   -  18 25 mph 1016.9mb 78f 72f
9:50am 15ft 14s 10s 18 25 mph 1016.8mb 78f 72f
9:40am 15ft  -  10s 18 25 mph 1016.7mb 78f 72f
9:30am  -   -   -  18 25 mph 1016.6mb 78f 71f
9:20am  -   -   -  16 25 mph 1016.6mb 78f 71f
9:10am  -   -   -  18 25 mph 1016.5mb 78f 71f
9:00am  -   -   -  16 22 mph 1016.4mb 78f 71f
8:50am 14ft 12s 9s 16 22 mph 1016.4mb 78f 71f
8:40am 14ft  -  9s 18 25 mph 1016.3mb 78f 71f
8:30am  -   -   -  16 25 mph 1016.1mb 78f 70f
8:20am  -   -   -  9 16 mph 1016.1mb 78f 69f
8:10am  -   -   -  13 25 mph 1016.1mb 78f 69f
8:00am  -   -   -  13 20 mph 1015.9mb - 69f
7:50am 15.5ft 14s 10s 13 20 mph 1015.8mb 78f 69f
7:40am 15.5ft  -  10s 16 22 mph 1015.7mb 78f 69f
7:30am  -   -   -  20 25 mph 1015.6mb 78f 69f
7:20am  -   -   -  20 27 mph 1015.6mb 78f 70f
7:10am  -   -   -  18 25 mph 1015.6mb 78f 69f
7:00am  -   -   -  20 27 mph 1015.6mb 78f 68f
6:50am 14.5ft 13s 9s 25 29 mph 1015.4mb 78f 69f
6:40am 14.5ft  -  9s 27 36 mph 1015.2mb 78f 71f
6:30am  -   -   -  22 27 mph 1015mb 78f 71f
6:20am  -   -   -  18 25 mph 1014.9mb 78f 71f
6:10am  -   -   -  18 27 mph 1014.9mb 78f 71f
6:00am  -   -   -  20 25 mph 1014.8mb 78f 71f
5:50am 15ft 15s 9s 20 27 mph 1014.6mb 78f 71f
5:40am 15ft  -  9s 20 27 mph 1014.5mb 78f 71f
5:30am  -   -   -  20 27 mph 1014.5mb 78f 71f
5:20am  -   -   -  18 25 mph 1014.4mb 78f 72f
5:10am  -   -   -  18 25 mph 1014.5mb 78f 72f
5:00am  -   -   -  18 25 mph 1014.4mb 78f 72f
4:50am 13ft 14s 9s 18 25 mph 1014.3mb 78f 72f
4:40am 13ft  -  9s 18 25 mph 1014.3mb 78f 72f
4:30am  -   -   -  18 22 mph 1014.3mb 78f 72f
4:20am  -   -   -  18 25 mph 1014.4mb 78f 72f
4:10am  -   -   -  18 25 mph 1014.4mb 78f 72f
4:00am  -   -   -  20 27 mph 1014.3mb 78f 72f
3:50am 14.5ft 14s 9s 20 25 mph 1014.4mb 78f 72f
3:40am 14.5ft  -  9s 18 22 mph 1014.3mb 78f 72f
3:30am  -   -   -  20 27 mph 1014.5mb 78f 72f
3:20am  -   -   -  20 25 mph 1014.4mb 78f 72f
3:10am  -   -   -  20 25 mph 1014.4mb 78f 72f
3:00am  -   -   -  18 25 mph 1014.4mb 78f -
2:50am 15.5ft 15s 9s 20 27 mph 1014.5mb 78f 72f
2:40am 15.5ft  -  9s 22 29 mph 1014.5mb 78f 72f
2:30am  -   -   -  20 27 mph 1014.5mb 78f 72f
2:20am  -   -   -  20 29 mph 1014.6mb 78f 72f
2:10am  -   -   -  20 27 mph 1014.7mb 78f 72f
2:00am  -   -   -  22 27 mph 1014.8mb 78f 72f
1:50am 15.5ft 15s 9s 20 27 mph 1014.8mb 78f 72f
1:40am 15.5ft  -  9s 20 27 mph 1014.8mb 78f 72f
1:30am  -   -   -  22 29 mph 1014.8mb 78f 72f
1:20am  -   -   -  22 29 mph 1014.9mb 78f 72f
1:10am  -   -   -  20 27 mph 1014.9mb 78f 72f
1:00am  -   -   -  22 27 mph 1014.8mb 78f 72f
12:50am 14.5ft 15s 9s 22 29 mph 1014.9mb 78f 72f
12:40am  -   -   -  22 31 mph 1014.9mb 78f 72f
12:30am  -   -   -  25 31 mph 1015mb 78f 72f
12:20am  -   -   -  25 31 mph 1014.9mb 78f 72f
12:10am  -   -   -  22 29 mph 1015mb 78f 72f
12:00am  -   -   -  22 31 mph 1015mb 78f 73f
Sat 11/18 11:50pm 14ft 13s 9s 22 31 mph 1015mb 78f 73f
11:40pm 14ft  -  9s 22 29 mph 1015mb 78f 73f
11:30pm  -   -   -  20 29 mph 1015mb - 73f
11:20pm  -   -   -  20 27 mph 1015.1mb 78f 73f
11:10pm  -   -   -  20 29 mph 1015.1mb 78f 73f
11:00pm  -   -   -  22 27 mph 1015.1mb 78f 72f
10:50pm 13.5ft 15s 9s 18 27 mph 1015.1mb 78f 71f
10:40pm  -   -   -  20 29 mph 1015.2mb 78f 72f
10:30pm  -   -   -  20 29 mph 1015.2mb 78f 72f
10:20pm  -   -   -  20 25 mph 1015.3mb 78f 72f
10:10pm  -   -   -  20 27 mph 1015.3mb 78f 71f
10:00pm  -   -   -  22 27 mph 1015.3mb 78f 71f
9:50pm 14ft 12s 8s 25 29 mph 1015.2mb 78f 71f
9:40pm 14ft  -  8s 25 31 mph 1015.2mb 78f 72f
9:30pm  -   -   -  22 29 mph 1015.2mb 78f 72f
9:20pm  -   -   -  22 27 mph 1015.1mb 78f 72f
9:10pm  -   -   -  22 27 mph 1015mb 78f 72f
9:00pm  -   -   -  22 29 mph 1015mb 78f 72f
8:50pm 15ft  -  9s 22 27 mph 1014.9mb 78f -
8:40pm  -   -   -  22 29 mph 1014.9mb 78f 72f
8:30pm  -   -   -  22 29 mph 1014.7mb 78f 72f
8:20pm  -   -   -  18 27 mph 1014.6mb 78f 72f
8:10pm  -   -   -  20 25 mph 1014.5mb 78f 72f
8:00pm  -   -   -  22 29 mph 1014.4mb 78f 72f
7:50pm 12.5ft 11s 8s 20 27 mph 1014.3mb 78f 72f
7:40pm  -   -   -  20 25 mph 1014.2mb 78f 72f
7:30pm  -   -   -  20 25 mph 1014.1mb - 72f
7:20pm  -   -   -  20 27 mph 1014mb 78f 72f
7:10pm  -   -   -  20 27 mph 1013.9mb 78f 72f
7:00pm  -   -   -  20 25 mph 1013.6mb 78f 73f
6:50pm 11ft 9s 7s 20 27 mph 1013.6mb 78f 73f
6:40pm  -   -   -  20 25 mph 1013.5mb 78f 73f
6:30pm  -   -   -  20 27 mph 1013.5mb 78f 73f
6:20pm  -   -   -  22 27 mph 1013.4mb 78f 73f
6:10pm  -   -   -  22 29 mph 1013.4mb 78f 73f
6:00pm  -   -   -  22 29 mph 1013.3mb 78f 73f
5:50pm 10.5ft 11s 7s 22 27 mph 1013.2mb 78f 73f
5:40pm  -   -   -  22 27 mph 1013.2mb 78f 73f
5:30pm  -   -   -  22 29 mph 1013.1mb 78f 73f
5:20pm  -   -   -  22 29 mph 1013mb 78f 73f
5:10pm  -   -   -  22 29 mph 1013.1mb 78f 73f
5:00pm  -   -   -  25 29 mph 1012.9mb 78f 73f
4:50pm 11ft 11s 8s 22 29 mph 1012.8mb 78f 73f
4:40pm 11ft  -  8s 22 29 mph 1012.8mb 78f 73f
4:30pm  -   -   -  16 27 mph 1012.7mb 78f 72f
4:20pm  -   -   -  13 22 mph 1012.7mb 78f 71f
4:10pm  -   -   -  16 22 mph 1012.8mb 78f 71f
4:00pm  -   -   -  16 20 mph 1012.7mb 78f 71f
3:50pm 11ft 10s 8s 16 20 mph 1012.7mb 78f 71f
3:40pm  -   -   -  16 22 mph 1012.8mb 78f 71f
3:30pm  -   -   -  16 22 mph 1012.8mb 78f 71f